Time;durP1;ratioP1;P1;durP2;ratioP2;P2;SDS_P1;SDS_P2;PMS_P1;PMS_P2;Temp;Humidity;BMP_temperature;BMP_pressure;BME280_temperature;BME280_humidity;BME280_pressure;Samples;Min_cycle;Max_cycle;Signal;HPM_P1;HPM_P2
2022/06/10 00:00:28;;;;;;;2.40;2.20;;;18.80;99.90;;;;;;5033363;28;20457;-61
2022/06/10 00:02:55;;;;;;;4.90;2.03;;;18.50;99.90;;;;;;5033678;28;20818;-61
2022/06/10 00:05:25;;;;;;;3.00;1.93;;;18.40;99.90;;;;;;5033703;28;20541;-61
2022/06/10 00:07:53;;;;;;;2.27;1.73;;;18.10;99.90;;;;;;5033114;28;20943;-62
2022/06/10 00:10:23;;;;;;;3.57;2.13;;;18.00;99.90;;;;;;5033057;28;20566;-61
2022/06/10 00:12:52;;;;;;;2.33;2.13;;;18.00;99.90;;;;;;5033593;28;20449;-62
2022/06/10 00:15:20;;;;;;;2.57;2.10;;;18.00;99.90;;;;;;5033068;28;20482;-62
2022/06/10 00:17:48;;;;;;;2.00;1.80;;;17.90;99.90;;;;;;5033202;28;20812;-61
2022/06/10 00:20:17;;;;;;;2.20;2.00;;;18.00;99.90;;;;;;5033361;28;20556;-61
2022/06/10 00:22:45;;;;;;;3.20;2.20;;;17.80;99.90;;;;;;5033077;28;20544;-61
2022/06/10 00:25:12;;;;;;;4.73;2.77;;;17.80;99.90;;;;;;5032837;28;20485;-61
2022/06/10 00:27:39;;;;;;;3.40;2.10;;;17.90;99.90;;;;;;5033092;28;20532;-61
2022/06/10 00:30:10;;;;;;;3.13;2.20;;;17.40;99.90;;;;;;5033171;28;20563;-61
2022/06/10 00:32:37;;;;;;;5.53;2.10;;;16.80;99.90;;;;;;5033272;28;20462;-61
2022/06/10 00:35:07;;;;;;;2.40;2.20;;;16.40;99.90;;;;;;5033108;28;20515;-62
2022/06/10 00:37:34;;;;;;;2.80;2.13;;;16.50;99.90;;;;;;5032916;28;20515;-61
2022/06/10 00:40:02;;;;;;;5.23;2.00;;;16.50;99.90;;;;;;5033181;28;20466;-61
2022/06/10 00:42:29;;;;;;;8.00;2.57;;;16.10;99.90;;;;;;5032992;28;20541;-61
2022/06/10 00:44:57;;;;;;;7.50;2.40;;;16.20;99.90;;;;;;5032868;28;20438;-61
2022/06/10 00:47:32;;;;;;;3.30;2.07;;;16.80;99.90;;;;;;5032932;28;20533;-61
2022/06/10 00:50:07;;;;;;;2.80;2.50;;;17.30;99.90;;;;;;5033024;28;20462;-61
2022/06/10 00:52:38;;;;;;;6.33;2.20;;;17.60;99.90;;;;;;5032579;28;20915;-61
2022/06/10 00:55:08;;;;;;;4.77;2.27;;;17.70;99.90;;;;;;5032683;28;20473;-61
2022/06/10 00:57:40;;;;;;;5.80;2.80;;;17.80;99.90;;;;;;5033011;28;20450;-61
2022/06/10 01:00:11;;;;;;;3.10;2.10;;;18.00;99.90;;;;;;5032859;28;20472;-61
2022/06/10 01:02:41;;;;;;;2.57;2.37;;;18.00;99.90;;;;;;5033368;28;20466;-61
2022/06/10 01:05:11;;;;;;;2.53;2.20;;;17.90;99.90;;;;;;5036812;28;20446;-61
2022/06/10 01:07:41;;;;;;;4.67;2.23;;;17.80;99.90;;;;;;5036212;28;20442;-61
2022/06/10 01:10:11;;;;;;;2.60;2.40;;;17.70;99.90;;;;;;5036427;28;20487;-61
2022/06/10 01:12:50;;;;;;;3.50;2.00;;;17.70;99.90;;;;;;5036331;28;20858;-61
2022/06/10 01:15:30;;;;;;;4.37;2.20;;;17.70;99.90;;;;;;5036589;28;20556;-62
2022/06/10 01:18:28;;;;;;;2.27;1.80;;;18.00;99.90;;;;;;5036659;28;20436;-62
2022/06/10 01:21:17;;;;;;;4.73;2.40;;;18.40;99.90;;;;;;5036648;28;20433;-62
2022/06/10 01:24:29;;;;;;;3.30;2.30;;;17.80;99.90;;;;;;5036158;28;20518;-61
2022/06/10 01:27:49;;;;;;;3.17;2.80;;;17.70;99.90;;;;;;5036350;28;20438;-61
2022/06/10 01:30:27;;;;;;;5.10;3.00;;;17.90;99.90;;;;;;5036210;28;20549;-61
2022/06/10 01:33:07;;;;;;;3.00;2.80;;;17.50;99.90;;;;;;5036340;28;20484;-62
2022/06/10 01:35:42;;;;;;;2.37;2.17;;;16.90;99.90;;;;;;5036222;28;20472;-62
2022/06/10 01:38:17;;;;;;;2.43;2.20;;;16.90;99.90;;;;;;5036118;28;20488;-61
2022/06/10 01:40:52;;;;;;;4.33;2.50;;;17.10;99.90;;;;;;5036132;28;20887;-61
2022/06/10 01:43:33;;;;;;;2.97;2.43;;;17.30;99.90;;;;;;5036021;28;20436;-61
2022/06/10 01:46:07;;;;;;;2.80;2.37;;;17.50;99.90;;;;;;5036111;28;20514;-61
2022/06/10 01:48:40;;;;;;;5.37;3.07;;;16.90;99.90;;;;;;5035669;28;20901;-62
2022/06/10 01:51:13;;;;;;;9.43;2.70;;;16.60;99.90;;;;;;5035892;28;20526;-62
2022/06/10 01:53:45;;;;;;;3.53;2.60;;;16.50;99.90;;;;;;5035843;28;20514;-62
2022/06/10 01:56:18;;;;;;;4.43;2.60;;;16.20;99.90;;;;;;5035591;28;20496;-62
2022/06/10 01:58:52;;;;;;;6.33;3.10;;;16.30;99.90;;;;;;5035839;28;20494;-61
2022/06/10 02:01:23;;;;;;;4.57;2.70;;;16.90;99.90;;;;;;5035416;28;20918;-61
2022/06/10 02:03:55;;;;;;;3.00;2.50;;;17.40;99.90;;;;;;5035799;28;20442;-62
2022/06/10 02:06:27;;;;;;;4.57;2.83;;;17.60;99.90;;;;;;5035735;28;20481;-62
2022/06/10 02:08:58;;;;;;;3.63;2.50;;;17.50;99.90;;;;;;5035595;28;20565;-62
2022/06/10 02:11:27;;;;;;;3.00;2.33;;;17.30;99.90;;;;;;5035213;28;20478;-62
2022/06/10 02:13:57;;;;;;;3.07;2.77;;;17.30;99.90;;;;;;5035140;28;20457;-61
2022/06/10 02:16:28;;;;;;;3.47;2.20;;;16.50;99.90;;;;;;5035173;28;20466;-62
2022/06/10 02:19:03;;;;;;;6.20;4.23;;;16.60;99.90;;;;;;5034977;28;20900;-62
2022/06/10 02:21:37;;;;;;;2.27;2.03;;;16.70;99.90;;;;;;5035517;28;20671;-62
2022/06/10 02:24:09;;;;;;;2.70;2.33;;;17.00;99.90;;;;;;5035194;28;20437;-61
2022/06/10 02:26:38;;;;;;;3.50;2.40;;;17.40;99.90;;;;;;5034912;28;20477;-62
2022/06/10 02:29:11;;;;;;;3.40;2.50;;;16.90;99.90;;;;;;5035168;28;20812;-62
2022/06/10 02:31:41;;;;;;;9.10;2.80;;;16.30;99.90;;;;;;5035138;28;20427;-62
2022/06/10 02:34:10;;;;;;;6.40;2.40;;;16.10;99.90;;;;;;5034898;28;20525;-62
2022/06/10 02:36:43;;;;;;;2.37;2.17;;;16.50;99.90;;;;;;5034721;28;20478;-62
2022/06/10 02:39:17;;;;;;;2.70;2.50;;;16.90;99.90;;;;;;5035291;28;20561;-62
2022/06/10 02:41:51;;;;;;;2.90;2.57;;;17.10;99.90;;;;;;5034685;28;20440;-61
2022/06/10 02:44:24;;;;;;;3.57;2.37;;;17.30;99.90;;;;;;5034755;28;20450;-62
2022/06/10 02:47:00;;;;;;;3.00;2.70;;;17.00;99.90;;;;;;5034870;28;20525;-62
2022/06/10 02:49:29;;;;;;;2.67;2.47;;;16.80;99.90;;;;;;5034752;28;20465;-61
2022/06/10 02:51:57;;;;;;;4.53;2.93;;;16.60;99.90;;;;;;5034950;28;20541;-61
2022/06/10 02:54:27;;;;;;;5.20;2.93;;;16.40;99.90;;;;;;5034452;28;20951;-61
2022/06/10 02:56:55;;;;;;;3.73;2.83;;;15.90;99.90;;;;;;5034236;28;20480;-61
2022/06/10 03:02:25;;;;;;;3.47;3.13;;;15.90;99.90;;;;;;5034583;28;20406;-62
2022/06/10 03:05:10;;;;;;;5.87;2.80;;;15.60;99.90;;;;;;5034519;28;20525;-62
2022/06/10 03:07:54;;;;;;;3.23;2.73;;;15.20;99.90;;;;;;5034132;28;20480;-62
2022/06/10 03:10:28;;;;;;;4.83;2.90;;;15.00;99.90;;;;;;5033821;28;20543;-61
2022/06/10 03:13:15;;;;;;;2.87;2.53;;;15.00;99.90;;;;;;5034235;28;20423;-61
2022/06/10 03:15:58;;;;;;;3.70;3.00;;;15.30;99.90;;;;;;5034155;28;20501;-61
2022/06/10 03:18:33;;;;;;;3.03;2.77;;;15.70;99.90;;;;;;5034206;28;20431;-61
2022/06/10 03:21:11;;;;;;;5.53;2.93;;;16.00;99.90;;;;;;5034358;28;20800;-61
2022/06/10 03:23:47;;;;;;;3.57;3.20;;;16.00;99.90;;;;;;5033856;28;20434;-62
2022/06/10 03:26:25;;;;;;;3.00;2.80;;;15.90;99.90;;;;;;5033311;28;20449;-61
2022/06/10 03:29:00;;;;;;;7.43;3.50;;;16.00;99.90;;;;;;5034086;28;20474;-61
2022/06/10 03:31:33;;;;;;;5.40;3.13;;;15.90;99.90;;;;;;5034030;28;20438;-61
2022/06/10 03:34:04;;;;;;;5.57;2.60;;;15.70;99.90;;;;;;5033834;28;20462;-62
2022/06/10 03:36:33;;;;;;;4.50;2.90;;;15.90;99.90;;;;;;5034007;28;20553;-62
2022/06/10 03:39:01;;;;;;;5.67;2.80;;;15.90;99.90;;;;;;5034145;28;20477;-62
2022/06/10 03:41:32;;;;;;;4.70;2.63;;;16.40;99.90;;;;;;5033641;28;20446;-62
2022/06/10 03:44:03;;;;;;;4.77;2.93;;;16.80;99.90;;;;;;5033787;28;20811;-61
2022/06/10 03:46:33;;;;;;;4.20;3.00;;;17.00;99.90;;;;;;5033975;28;20438;-61
2022/06/10 03:49:07;;;;;;;3.53;2.70;;;17.20;99.90;;;;;;5033595;28;20477;-62
2022/06/10 03:51:36;;;;;;;7.80;3.50;;;17.00;99.90;;;;;;5033845;28;20441;-63
2022/06/10 03:54:03;;;;;;;3.20;2.93;;;16.60;99.90;;;;;;5033564;28;20450;-62
2022/06/10 03:56:31;;;;;;;5.30;3.27;;;16.20;99.90;;;;;;5033288;28;20997;-60
2022/06/10 03:58:59;;;;;;;6.17;3.13;;;16.20;99.90;;;;;;5033185;28;20476;-61
2022/06/10 04:01:26;;;;;;;7.30;3.43;;;16.40;99.90;;;;;;5033649;28;20496;-61
2022/06/10 04:03:53;;;;;;;4.30;3.17;;;16.20;99.90;;;;;;5033513;28;20454;-61
2022/06/10 04:06:20;;;;;;;5.60;3.67;;;16.20;99.90;;;;;;5033357;28;20449;-62
2022/06/10 04:08:49;;;;;;;3.60;3.10;;;16.00;99.90;;;;;;5033414;28;20496;-62
2022/06/10 04:11:16;;;;;;;4.07;3.67;;;16.10;99.90;;;;;;5033248;28;20845;-61
2022/06/10 04:13:44;;;;;;;5.27;3.00;;;16.30;99.90;;;;;;5033380;28;20533;-61
2022/06/10 04:16:11;;;;;;;4.70;3.33;;;16.30;99.90;;;;;;5033465;28;20573;-61
2022/06/10 04:18:39;;;;;;;6.17;3.07;;;16.30;99.90;;;;;;5033175;28;20450;-62
2022/06/10 04:21:06;;;;;;;4.37;3.07;;;16.20;99.90;;;;;;5033398;28;20501;-61
2022/06/10 04:23:34;;;;;;;3.23;2.93;;;16.10;99.90;;;;;;5033176;28;20441;-61
2022/06/10 04:26:03;;;;;;;3.83;3.03;;;15.90;99.90;;;;;;5032823;28;20445;-61
2022/06/10 04:28:30;;;;;;;4.37;3.80;;;15.60;99.90;;;;;;5033338;28;20818;-61
2022/06/10 04:30:57;;;;;;;4.03;3.63;;;15.30;99.90;;;;;;5032869;28;20461;-61
2022/06/10 04:33:25;;;;;;;7.80;3.90;;;15.10;99.90;;;;;;5032976;28;20450;-61
2022/06/10 04:35:52;;;;;;;3.53;3.23;;;14.80;99.90;;;;;;5033135;28;20891;-61
2022/06/10 04:38:22;;;;;;;4.60;4.07;;;14.70;99.90;;;;;;5036647;28;20461;-62
2022/06/10 04:40:49;;;;;;;5.50;3.40;;;14.60;99.90;;;;;;5036865;28;20809;-61
2022/06/10 04:43:18;;;;;;;4.87;4.03;;;14.50;99.90;;;;;;5037282;28;20584;-61
2022/06/10 04:45:47;;;;;;;7.53;4.03;;;14.60;99.90;;;;;;5037027;28;20458;-61
2022/06/10 04:48:15;;;;;;;4.97;4.10;;;15.00;99.90;;;;;;5036849;28;20454;-61
2022/06/10 04:50:43;;;;;;;4.60;3.43;;;15.00;99.90;;;;;;5036513;28;20474;-61
2022/06/10 04:53:11;;;;;;;7.33;3.40;;;14.90;99.90;;;;;;5036781;28;20875;-61
2022/06/10 04:55:38;;;;;;;3.90;3.27;;;14.90;99.90;;;;;;5036367;28;20450;-62
2022/06/10 04:58:06;;;;;;;4.47;4.07;;;14.90;99.90;;;;;;5036850;28;20438;-61
2022/06/10 05:00:37;;;;;;;6.10;4.00;;;14.80;99.90;;;;;;5036568;28;20446;-61
2022/06/10 05:03:05;;;;;;;6.60;3.53;;;14.80;99.90;;;;;;5036547;28;20437;-61
2022/06/10 05:05:32;;;;;;;4.73;3.20;;;14.80;99.90;;;;;;5036452;28;20437;-61
2022/06/10 05:08:00;;;;;;;5.57;3.47;;;14.90;99.90;;;;;;5036779;28;20446;-61
2022/06/10 05:10:28;;;;;;;10.80;4.17;;;14.80;99.90;;;;;;5036061;28;21014;-61
2022/06/10 05:12:55;;;;;;;5.93;4.10;;;14.80;99.90;;;;;;5036310;28;20957;-61
2022/06/10 05:15:23;;;;;;;5.67;3.13;;;14.60;99.90;;;;;;5036178;28;20937;-61
2022/06/10 05:17:52;;;;;;;4.67;4.17;;;14.70;99.90;;;;;;5036055;28;20482;-61
2022/06/10 05:20:23;;;;;;;3.50;3.20;;;14.80;99.90;;;;;;5035961;28;20472;-61
2022/06/10 05:22:50;;;;;;;7.00;3.57;;;15.20;99.90;;;;;;5036464;28;20426;-61
2022/06/10 05:25:18;;;;;;;4.80;4.40;;;15.10;99.90;;;;;;5033579;28;20518;-61
2022/06/10 05:27:46;;;;;;;4.03;3.70;;;15.00;99.90;;;;;;5016570;28;20529;-61
2022/06/10 05:30:18;;;;;;;5.80;3.63;;;15.10;99.90;;;;;;5016292;28;20467;-61
2022/06/10 05:32:45;;;;;;;10.73;3.80;;;15.10;99.90;;;;;;5016404;28;20431;-61
2022/06/10 05:35:15;;;;;;;7.40;3.73;;;15.10;99.90;;;;;;5015982;28;20554;-61
2022/06/10 05:37:43;;;;;;;5.50;3.60;;;15.30;99.90;;;;;;5016321;28;20482;-61
2022/06/10 05:40:12;;;;;;;7.40;3.70;;;15.50;99.90;;;;;;5016256;28;20467;-62
2022/06/10 05:42:39;;;;;;;6.00;3.60;;;15.50;99.90;;;;;;5015967;28;20447;-61
2022/06/10 05:45:08;;;;;;;4.27;3.33;;;15.50;99.90;;;;;;5016113;28;20505;-61
2022/06/10 05:47:37;;;;;;;3.77;3.00;;;15.50;99.90;;;;;;5016183;28;20462;-61
2022/06/10 05:50:07;;;;;;;6.10;3.47;;;15.90;99.90;;;;;;5015052;28;20467;-61
2022/06/10 05:52:37;;;;;;;3.83;3.20;;;16.70;99.90;;;;;;5016007;28;20447;-62
2022/06/10 05:55:08;;;;;;;4.53;3.90;;;16.50;99.90;;;;;;5015630;28;20454;-61
2022/06/10 05:57:35;;;;;;;7.23;3.43;;;16.40;99.90;;;;;;5016133;28;20486;-62
2022/06/10 06:00:04;;;;;;;3.57;3.33;;;16.30;99.90;;;;;;5015743;28;20451;-62
2022/06/10 06:02:31;;;;;;;6.30;4.30;;;17.00;99.90;;;;;;5015511;28;20950;-62
2022/06/10 06:04:59;;;;;;;4.43;3.70;;;17.10;99.90;;;;;;5015319;28;21029;-62
2022/06/10 06:07:28;;;;;;;7.30;3.70;;;16.80;99.90;;;;;;5015397;28;20530;-62
2022/06/10 06:09:57;;;;;;;9.50;4.27;;;16.60;99.90;;;;;;5015145;28;20900;-61
2022/06/10 06:12:25;;;;;;;8.17;4.03;;;16.40;99.90;;;;;;5015465;28;20450;-62
2022/06/10 06:14:52;;;;;;;7.57;4.40;;;16.30;99.90;;;;;;5015290;28;20458;-61
2022/06/10 06:17:22;;;;;;;3.90;2.57;;;16.20;99.90;;;;;;5015573;28;20573;-62
2022/06/10 06:19:49;;;;;;;5.60;3.73;;;16.50;99.90;;;;;;5014987;28;20467;-62
2022/06/10 06:22:18;;;;;;;11.83;4.60;;;16.80;99.90;;;;;;5015372;28;20806;-61
2022/06/10 06:24:46;;;;;;;11.87;4.90;;;16.60;99.90;;;;;;5014882;28;20973;-61
2022/06/10 06:27:16;;;;;;;4.93;3.60;;;16.70;99.90;;;;;;5015195;28;20458;-62
2022/06/10 06:29:44;;;;;;;6.27;3.97;;;16.60;99.90;;;;;;5015016;28;20505;-62
2022/06/10 06:32:11;;;;;;;5.23;3.53;;;16.50;99.90;;;;;;5014772;28;20532;-62
2022/06/10 06:34:39;;;;;;;5.30;4.70;;;16.70;99.90;;;;;;5014979;28;20447;-62
2022/06/10 06:37:10;;;;;;;5.40;4.13;;;16.80;99.90;;;;;;5014775;28;20485;-62
2022/06/10 06:39:37;;;;;;;11.93;4.37;;;16.80;99.90;;;;;;5015204;28;20485;-62
2022/06/10 06:42:05;;;;;;;6.47;4.30;;;16.60;99.90;;;;;;5015011;28;20485;-62
2022/06/10 06:44:34;;;;;;;7.47;3.80;;;17.20;99.90;;;;;;5014637;28;20509;-62
2022/06/10 06:47:02;;;;;;;7.43;4.10;;;17.20;99.90;;;;;;5014930;28;20906;-62
2022/06/10 06:49:30;;;;;;;5.00;4.20;;;17.20;99.90;;;;;;5014869;28;20471;-62
2022/06/10 06:51:58;;;;;;;11.37;3.83;;;17.10;99.90;;;;;;5014873;28;20454;-62
2022/06/10 06:54:25;;;;;;;10.53;3.77;;;17.50;99.90;;;;;;5014507;28;20451;-62
2022/06/10 06:56:52;;;;;;;4.90;3.10;;;17.40;99.90;;;;;;5014486;28;20482;-62
2022/06/10 06:59:19;;;;;;;6.87;3.70;;;17.40;99.90;;;;;;5014157;28;20992;-61
2022/06/10 07:01:48;;;;;;;9.30;3.60;;;17.70;99.90;;;;;;5013358;28;20533;-61
2022/06/10 07:04:15;;;;;;;10.50;4.13;;;18.40;99.90;;;;;;5014263;28;20531;-62
2022/06/10 07:06:47;;;;;;;5.50;3.73;;;18.90;99.90;;;;;;5014645;28;20453;-62
2022/06/10 07:09:14;;;;;;;4.53;3.30;;;19.60;99.90;;;;;;5014472;28;20483;-63
2022/06/10 07:11:41;;;;;;;4.30;3.40;;;20.00;99.90;;;;;;5014662;28;20455;-62
2022/06/10 07:14:09;;;;;;;7.67;3.70;;;20.60;99.90;;;;;;5014196;28;20453;-62
2022/06/10 07:16:36;;;;;;;5.83;4.17;;;21.00;99.90;;;;;;5014378;28;20446;-61
2022/06/10 07:19:06;;;;;;;4.27;3.87;;;21.20;99.90;;;;;;5014110;28;20467;-61
2022/06/10 07:21:33;;;;;;;9.33;3.80;;;21.40;99.90;;;;;;5014062;28;20950;-62
2022/06/10 07:24:01;;;;;;;7.17;3.90;;;21.80;99.90;;;;;;5013859;28;20542;-62
2022/06/10 07:26:28;;;;;;;3.20;2.70;;;21.30;99.90;;;;;;5013906;28;20784;-62
2022/06/10 07:28:55;;;;;;;5.40;3.13;;;21.50;99.90;;;;;;5014255;28;20490;-62
2022/06/10 07:31:22;;;;;;;4.57;2.80;;;21.90;99.90;;;;;;5014086;28;20501;-62
2022/06/10 07:33:51;;;;;;;3.53;2.90;;;22.20;99.90;;;;;;5014015;28;20475;-62
2022/06/10 07:36:20;;;;;;;6.40;3.10;;;22.50;99.90;;;;;;5014081;28;20538;-62
2022/06/10 07:38:47;;;;;;;5.60;3.20;;;22.60;99.90;;;;;;5014256;28;20519;-62
2022/06/10 07:43:59;;;;;;;5.23;3.10;;;22.60;99.90;;;;;;5013743;28;20411;-62
2022/06/10 07:46:26;;;;;;;3.43;2.93;;;22.90;99.20;;;;;;5013950;28;20486;-62
2022/06/10 07:48:53;;;;;;;11.20;3.40;;;23.20;98.40;;;;;;5013831;28;20503;-62
2022/06/10 07:51:23;;;;;;;3.73;3.00;;;24.00;97.70;;;;;;5013919;28;20455;-62
2022/06/10 07:53:51;;;;;;;6.43;3.33;;;24.30;96.90;;;;;;5013633;28;20470;-62
2022/06/10 07:56:22;;;;;;;6.83;2.50;;;23.90;97.40;;;;;;5013064;28;20439;-62
2022/06/10 07:58:53;;;;;;;8.37;3.73;;;23.90;97.20;;;;;;5013553;28;20549;-62
2022/06/10 08:01:20;;;;;;;5.10;3.27;;;24.20;96.00;;;;;;5013689;28;20435;-62
2022/06/10 08:03:49;;;;;;;8.40;2.97;;;24.70;97.10;;;;;;5013563;28;20516;-62
2022/06/10 08:06:20;;;;;;;4.60;2.90;;;24.80;96.80;;;;;;5013849;28;20451;-62
2022/06/10 08:08:48;;;;;;;9.00;3.43;;;24.50;96.80;;;;;;5013640;28;20466;-62
2022/06/10 08:11:16;;;;;;;12.20;3.10;;;24.60;96.40;;;;;;5013077;28;20977;-62
2022/06/10 08:13:44;;;;;;;3.83;3.53;;;25.20;96.30;;;;;;5013595;28;20780;-62
2022/06/10 08:16:11;;;;;;;4.83;3.07;;;24.60;95.30;;;;;;5013679;28;20447;-63
2022/06/10 08:18:38;;;;;;;7.60;3.97;;;25.30;94.50;;;;;;5013034;28;21009;-62
2022/06/10 08:23:53;;;;;;;6.43;3.30;;;24.20;94.50;;;;;;5013154;28;20845;-62
2022/06/10 08:26:20;;;;;;;7.90;3.77;;;24.50;95.80;;;;;;5012952;28;20542;-62
2022/06/10 08:28:49;;;;;;;6.47;3.40;;;25.00;95.20;;;;;;5013321;28;20489;-62
2022/06/10 08:31:16;;;;;;;9.53;3.30;;;24.80;94.70;;;;;;5013424;28;20486;-62
2022/06/10 08:33:43;;;;;;;4.47;2.97;;;25.70;94.30;;;;;;5013396;28;20510;-63
2022/06/10 08:36:12;;;;;;;3.87;3.53;;;25.80;94.20;;;;;;5013184;28;20459;-62
2022/06/10 08:38:41;;;;;;;11.03;3.40;;;25.60;93.40;;;;;;5013417;28;20491;-62
2022/06/10 08:41:16;;;;;;;6.40;3.10;;;26.10;93.80;;;;;;5013444;28;20799;-62
2022/06/10 08:43:59;;;;;;;5.83;3.73;;;26.50;91.80;;;;;;5013509;28;20474;-62
2022/06/10 08:46:42;;;;;;;6.43;3.70;;;26.10;92.80;;;;;;5013286;28;20431;-63
2022/06/10 08:49:44;;;;;;;4.60;2.20;;;26.60;90.50;;;;;;5013217;28;20478;-63
2022/06/10 08:52:19;;;;;;;6.00;3.07;;;26.00;90.90;;;;;;5009714;28;20493;-62
2022/06/10 08:54:53;;;;;;;5.07;2.80;;;25.10;89.10;;;;;;5013423;28;20478;-62
2022/06/10 08:57:32;;;;;;;7.00;3.30;;;25.80;89.90;;;;;;5031841;28;20509;-61
2022/06/10 09:00:01;;;;;;;3.40;2.53;;;26.30;88.30;;;;;;5032789;28;20470;-62
2022/06/10 09:02:31;;;;;;;6.70;2.40;;;26.00;90.30;;;;;;5032259;28;20545;-62
2022/06/10 09:05:05;;;;;;;5.80;3.03;;;26.80;89.90;;;;;;5032831;28;20807;-62
2022/06/10 09:07:39;;;;;;;8.30;2.93;;;27.50;88.80;;;;;;5032840;28;20434;-62
2022/06/10 09:10:15;;;;;;;9.90;3.00;;;26.90;86.20;;;;;;5031316;28;20957;-62
2022/06/10 09:13:14;;;;;;;4.27;2.83;;;27.20;87.60;;;;;;5032874;28;20509;-63
2022/06/10 09:15:49;;;;;;;8.30;2.77;;;27.80;84.20;;;;;;5007350;28;20506;-63
2022/06/10 09:18:23;;;;;;;8.23;3.20;;;28.10;85.30;;;;;;5032428;28;21032;-61
2022/06/10 09:20:57;;;;;;;7.07;3.07;;;27.60;82.10;;;;;;5032418;28;20435;-62
2022/06/10 09:23:32;;;;;;;4.27;2.37;;;28.10;79.20;;;;;;5032606;28;20517;-62
2022/06/10 09:26:09;;;;;;;5.63;2.30;;;27.60;74.00;;;;;;5035753;28;20461;-62
2022/06/10 09:28:39;;;;;;;2.70;2.23;;;27.90;79.10;;;;;;5036347;28;20437;-62
2022/06/10 09:31:15;;;;;;;3.73;2.50;;;28.10;76.80;;;;;;5036179;28;20460;-61
2022/06/10 09:33:51;;;;;;;2.90;2.10;;;28.10;71.50;;;;;;5035869;28;20532;-61
2022/06/10 09:36:26;;;;;;;4.70;2.60;;;27.90;76.90;;;;;;5035647;28;20437;-61
2022/06/10 09:39:01;;;;;;;3.90;2.30;;;27.50;71.50;;;;;;5035913;28;20580;-61
2022/06/10 09:41:36;;;;;;;7.60;3.70;;;27.50;74.90;;;;;;5036040;28;20529;-61
2022/06/10 09:44:15;;;;;;;4.00;2.87;;;28.00;73.40;;;;;;5036000;28;20429;-63
2022/06/10 09:47:07;;;;;;;5.60;2.70;;;27.30;73.00;;;;;;5035796;28;20434;-60
2022/06/10 09:50:00;;;;;;;2.63;2.27;;;;;;;;;;5035966;28;20466;-61
2022/06/10 09:52:31;;;;;;;5.97;2.80;;;28.50;73.80;;;;;;5021050;28;20524;-61
2022/06/10 09:55:19;;;;;;;5.47;2.60;;;28.80;73.40;;;;;;5035349;28;20469;-60
2022/06/10 09:58:03;;;;;;;3.23;2.00;;;27.80;72.50;;;;;;5035531;28;20502;-61
2022/06/10 10:00:38;;;;;;;3.80;2.17;;;27.60;74.50;;;;;;5035566;28;20466;-61
2022/06/10 10:03:19;;;;;;;4.80;2.73;;;28.10;72.20;;;;;;5035612;28;20517;-61
2022/06/10 10:06:02;;;;;;;6.77;2.67;;;29.20;72.70;;;;;;5035279;28;20972;-62
2022/06/10 10:08:35;;;;;;;8.27;2.67;;;29.20;71.50;;;;;;5035649;28;20565;-62
2022/06/10 10:11:08;;;;;;;7.47;2.80;;;28.90;68.00;;;;;;5035093;28;20984;-62
2022/06/10 10:13:54;;;;;;;3.23;2.30;;;28.10;70.50;;;;;;5035363;28;20473;-61
2022/06/10 10:16:31;;;;;;;4.10;2.60;;;28.00;70.90;;;;;;5035289;28;20441;-61
2022/06/10 10:19:19;;;;;;;7.17;2.33;;;27.90;68.90;;;;;;5035398;28;20576;-61
2022/06/10 10:21:55;;;;;;;4.20;2.00;;;28.10;68.60;;;;;;5035271;28;20791;-61
2022/06/10 10:24:25;;;;;;;5.07;2.87;;;28.70;69.20;;;;;;5035345;28;20418;-62
2022/06/10 10:26:53;;;;;;;6.30;2.77;;;27.60;70.20;;;;;;5019513;28;20447;-62
2022/06/10 10:29:24;;;;;;;4.40;2.20;;;28.50;69.10;;;;;;5015357;28;20483;-62
2022/06/10 10:31:59;;;;;;;4.30;3.03;;;28.30;68.90;;;;;;5015069;28;20467;-63
2022/06/10 10:34:29;;;;;;;4.73;2.20;;;28.00;67.80;;;;;;5014727;28;20525;-62
2022/06/10 10:36:59;;;;;;;5.80;2.40;;;27.60;67.70;;;;;;5015188;28;20467;-62
2022/06/10 10:39:30;;;;;;;4.53;2.20;;;28.00;67.90;;;;;;5015157;28;20985;-62
2022/06/10 10:42:00;;;;;;;3.30;2.43;;;27.40;69.10;;;;;;5014931;28;20906;-62
2022/06/10 10:44:35;;;;;;;4.17;2.20;;;27.70;67.60;;;;;;5014911;28;20483;-62
2022/06/10 10:47:21;;;;;;;4.40;2.60;;;27.70;66.40;;;;;;5014744;28;20922;-64
2022/06/10 10:49:51;;;;;;;3.87;3.53;;;28.20;67.60;;;;;;5014935;28;20554;-62
2022/06/10 10:52:24;;;;;;;2.27;2.07;;;27.80;63.90;;;;;;5014900;28;20457;-62
2022/06/10 10:54:54;;;;;;;5.77;2.20;;;27.50;66.20;;;;;;5014575;28;20503;-63
2022/06/10 10:57:26;;;;;;;3.23;2.10;;;27.50;68.40;;;;;;5014621;28;20459;-62
2022/06/10 11:00:04;;;;;;;9.63;3.80;;;27.90;65.90;;;;;;5014952;28;20522;-62
2022/06/10 11:02:37;;;;;;;6.27;2.63;;;27.10;66.00;;;;;;5014847;28;20522;-62
2022/06/10 11:05:31;;;;;;;6.60;3.20;;;26.20;68.40;;;;;;5014625;28;20467;-62
2022/06/10 11:08:24;;;;;;;4.33;2.50;;;24.70;71.70;;;;;;5014520;28;20454;-62
2022/06/10 11:11:01;;;;;;;6.87;2.73;;;25.60;71.60;;;;;;5014392;28;20846;-62
2022/06/10 11:13:50;;;;;;;6.00;2.53;;;26.50;70.00;;;;;;5014657;28;20435;-61
2022/06/10 11:16:47;;;;;;;3.70;2.20;;;26.90;67.60;;;;;;5014314;28;20461;-61
2022/06/10 11:19:47;;;;;;;4.03;2.30;;;27.20;70.70;;;;;;5009501;28;20562;-61
2022/06/10 11:22:25;;;;;;;4.07;2.43;;;25.90;68.70;;;;;;5013861;28;20501;-61
2022/06/10 11:24:54;;;;;;;4.03;2.47;;;25.90;69.00;;;;;;5014029;28;20520;-61
2022/06/10 11:27:26;;;;;;;4.10;2.27;;;25.90;69.50;;;;;;5014402;28;20453;-61
2022/06/10 11:30:07;;;;;;;9.97;2.60;;;25.60;70.00;;;;;;5013877;28;20470;-61
2022/06/10 11:32:38;;;;;;;3.77;2.67;;;25.20;70.10;;;;;;5013989;28;20442;-62
2022/06/10 11:35:25;;;;;;;3.53;2.63;;;25.00;70.70;;;;;;5013957;28;20905;-62
2022/06/10 11:37:55;;;;;;;14.73;2.60;;;24.60;73.40;;;;;;5013790;28;20875;-62
2022/06/10 11:40:26;;;;;;;3.37;2.83;;;24.30;71.60;;;;;;5014057;28;20557;-62
2022/06/10 11:43:01;;;;;;;4.20;2.60;;;24.10;73.40;;;;;;5013738;28;20435;-62
2022/06/10 11:45:34;;;;;;;5.97;2.70;;;24.00;74.00;;;;;;5014071;28;21032;-60
2022/06/10 11:48:09;;;;;;;2.77;2.50;;;24.10;74.00;;;;;;5013626;28;20435;-60
2022/06/10 11:50:50;;;;;;;4.33;2.20;;;24.20;74.80;;;;;;5014043;28;20466;-61
2022/06/10 11:53:21;;;;;;;5.27;2.97;;;24.20;75.20;;;;;;5013740;28;20514;-60
2022/06/10 11:59:42;;;;;;;9.87;2.90;;;24.10;72.80;;;;;;5013459;28;20799;-61
2022/06/10 12:01:36;;;;;;;3.40;2.47;;;24.10;76.80;;;;;;5013589;28;20442;-61
2022/06/10 12:04:08;;;;;;;3.80;2.63;;;24.20;75.60;;;;;;5013383;28;20459;-61
2022/06/10 12:06:44;;;;;;;6.77;2.83;;;24.10;71.70;;;;;;5013492;28;20917;-60
2022/06/10 12:09:18;;;;;;;3.50;2.90;;;24.20;73.80;;;;;;5013367;28;20506;-61
2022/06/10 12:11:48;;;;;;;5.20;2.97;;;24.10;74.40;;;;;;5013271;28;20569;-61
2022/06/10 12:14:19;;;;;;;5.13;2.80;;;24.10;75.10;;;;;;5013497;28;20996;-61
2022/06/10 12:16:49;;;;;;;5.00;2.87;;;24.20;73.10;;;;;;5013567;28;20438;-61
2022/06/10 12:19:22;;;;;;;4.97;2.70;;;24.20;73.00;;;;;;5013586;28;20513;-61
2022/06/10 12:21:52;;;;;;;2.50;2.00;;;24.20;76.10;;;;;;5013639;28;20443;-61
2022/06/10 12:24:21;;;;;;;3.27;2.20;;;24.10;71.80;;;;;;5013349;28;20946;-60
2022/06/10 12:26:54;;;;;;;2.90;2.30;;;25.30;70.70;;;;;;5028203;28;20458;-60
2022/06/10 12:29:28;;;;;;;2.93;2.30;;;26.20;71.80;;;;;;5033215;28;20893;-61
2022/06/10 12:32:06;;;;;;;2.83;2.40;;;26.00;71.20;;;;;;5032999;28;21008;-61
2022/06/10 12:34:57;;;;;;;4.40;2.43;;;25.30;67.10;;;;;;5032907;28;20433;-61
2022/06/10 12:37:38;;;;;;;4.77;2.60;;;24.60;68.30;;;;;;5033193;28;20430;-61
2022/06/10 12:40:14;;;;;;;3.90;2.17;;;24.10;68.50;;;;;;5032919;28;21005;-60
2022/06/10 12:42:47;;;;;;;4.40;2.17;;;24.20;72.70;;;;;;5033309;28;20458;-60
2022/06/10 12:45:22;;;;;;;3.77;2.10;;;24.30;71.40;;;;;;5032777;28;20435;-61
2022/06/10 12:47:55;;;;;;;5.63;3.17;;;24.30;71.60;;;;;;5033271;28;20939;-61
2022/06/10 12:50:24;;;;;;;6.03;2.23;;;24.50;70.00;;;;;;5032685;28;20473;-60
2022/06/10 12:53:14;;;;;;;5.40;2.40;;;24.10;69.60;;;;;;5032965;28;20456;-61
2022/06/10 12:55:47;;;;;;;2.93;2.50;;;24.00;70.90;;;;;;5032530;28;20898;-61
2022/06/10 12:58:49;;;;;;;3.03;2.40;;;23.90;70.80;;;;;;5032823;28;20438;-61
2022/06/10 13:01:23;;;;;;;4.70;2.57;;;23.90;73.80;;;;;;4975713;28;20429;-61
2022/06/10 13:03:52;;;;;;;3.30;2.20;;;24.00;73.40;;;;;;4975736;28;20504;-61
2022/06/10 13:06:56;;;;;;;3.23;2.33;;;24.20;73.50;;;;;;5007372;28;20529;-61
2022/06/10 13:09:35;;;;;;;5.60;2.40;;;24.40;73.70;;;;;;5036164;28;20500;-62
2022/06/10 13:12:35;;;;;;;3.00;2.37;;;24.30;73.70;;;;;;5036216;28;20430;-61
2022/06/10 13:15:14;;;;;;;4.43;2.40;;;24.30;73.00;;;;;;5036276;28;20427;-61
2022/06/10 13:17:56;;;;;;;3.10;2.30;;;24.60;73.60;;;;;;5036653;28;20422;-62
2022/06/10 13:20:27;;;;;;;4.03;2.20;;;24.60;77.50;;;;;;5036231;28;20496;-61
2022/06/10 13:23:12;;;;;;;5.33;2.57;;;;;;;;;;5036641;28;20442;-62
2022/06/10 13:25:41;;;;;;;3.97;2.60;;;24.70;71.70;;;;;;5026116;28;20464;-61
2022/06/10 13:28:23;;;;;;;2.83;2.60;;;24.80;70.50;;;;;;5036384;28;20446;-61